createdAt,value
2022-09-25T00:01:40.175Z,3.03
2022-09-25T00:04:10.731Z,2.97
2022-09-25T00:06:41.484Z,2.60
2022-09-25T00:09:10.990Z,2.30
2022-09-25T00:11:42.150Z,2.53
2022-09-25T00:14:11.080Z,2.50
2022-09-25T00:16:39.930Z,2.30
2022-09-25T00:19:28.899Z,5.10
2022-09-25T00:21:57.670Z,3.50
2022-09-25T00:24:26.941Z,4.10
2022-09-25T00:26:55.868Z,9.82
2022-09-25T00:29:24.679Z,3.28
2022-09-25T00:31:53.386Z,5.40
2022-09-25T00:34:23.511Z,2.80
2022-09-25T00:36:52.459Z,3.03
2022-09-25T00:39:21.558Z,4.20
2022-09-25T00:41:50.495Z,2.63
2022-09-25T00:44:58.229Z,3.15
2022-09-25T00:47:34.961Z,3.28
2022-09-25T00:50:18.052Z,5.07
2022-09-25T00:52:48.147Z,2.83
2022-09-25T00:55:17.706Z,3.63
2022-09-25T00:57:49.690Z,3.08
2022-09-25T01:00:18.879Z,3.65
2022-09-25T01:02:53.480Z,2.55
2022-09-25T01:05:27.835Z,3.20
2022-09-25T01:07:59.315Z,3.30
2022-09-25T01:10:28.957Z,5.15
2022-09-25T01:12:59.264Z,2.08
2022-09-25T01:15:34.889Z,3.53
2022-09-25T01:18:13.380Z,3.38
2022-09-25T01:21:02.833Z,2.78
2022-09-25T01:23:48.494Z,2.30
2022-09-25T01:26:37.011Z,3.40
2022-09-25T01:29:13.184Z,2.90
2022-09-25T01:31:45.424Z,3.17
2022-09-25T01:34:20.158Z,3.20
2022-09-25T01:36:54.268Z,2.90
2022-09-25T01:39:28.527Z,3.28
2022-09-25T01:42:02.407Z,3.15
2022-09-25T01:44:35.942Z,4.10
2022-09-25T01:47:10.691Z,9.43
2022-09-25T01:49:45.946Z,3.85
2022-09-25T01:52:18.750Z,2.53
2022-09-25T01:54:52.139Z,3.47
2022-09-25T01:57:25.176Z,3.47
2022-09-25T02:00:01.486Z,3.50
2022-09-25T02:02:46.640Z,3.20
2022-09-25T02:05:19.700Z,2.60
2022-09-25T02:07:54.334Z,3.22
2022-09-25T02:10:28.514Z,4.30
2022-09-25T02:13:03.898Z,5.72
2022-09-25T02:15:39.590Z,3.28
2022-09-25T02:18:30.673Z,4.47
2022-09-25T02:21:06.943Z,5.00
2022-09-25T02:23:45.375Z,4.55
2022-09-25T02:26:22.238Z,5.70
2022-09-25T02:28:53.860Z,4.10
2022-09-25T02:31:29.794Z,3.95
2022-09-25T02:33:58.840Z,4.63
2022-09-25T02:36:27.652Z,3.67
2022-09-25T02:38:57.479Z,3.17
2022-09-25T02:41:42.252Z,3.58
2022-09-25T02:44:19.098Z,5.75
2022-09-25T02:47:00.894Z,4.72
2022-09-25T02:49:38.139Z,4.35
2022-09-25T02:52:11.638Z,6.22
2022-09-25T02:54:47.835Z,3.83
2022-09-25T02:57:25.212Z,4.03
2022-09-25T02:59:57.554Z,3.90
2022-09-25T03:02:29.218Z,5.18
2022-09-25T03:05:00.066Z,4.38
2022-09-25T03:07:29.080Z,4.78
2022-09-25T03:09:59.323Z,4.15
2022-09-25T03:12:28.085Z,4.22
2022-09-25T03:14:57.067Z,3.70
2022-09-25T03:17:27.681Z,6.35
2022-09-25T03:19:57.101Z,4.50
2022-09-25T03:22:26.092Z,4.35
2022-09-25T03:24:54.818Z,4.10
2022-09-25T03:27:23.691Z,4.40
2022-09-25T03:29:52.493Z,4.32
2022-09-25T03:32:21.211Z,5.18
2022-09-25T03:34:51.415Z,5.07
2022-09-25T03:37:20.042Z,4.35
2022-09-25T03:39:48.720Z,6.05
2022-09-25T03:42:18.178Z,4.60
2022-09-25T03:44:47.084Z,5.85
2022-09-25T03:47:15.976Z,5.07
2022-09-25T03:49:44.787Z,4.63
2022-09-25T03:52:14.871Z,4.03
2022-09-25T03:54:44.040Z,5.10
2022-09-25T03:57:15.112Z,6.45
2022-09-25T03:59:44.332Z,6.25
2022-09-25T04:02:13.633Z,5.05
2022-09-25T04:04:42.629Z,4.00
2022-09-25T04:07:11.836Z,5.60
2022-09-25T04:09:41.939Z,7.93
2022-09-25T04:12:11.361Z,4.65
2022-09-25T04:14:40.066Z,7.18
2022-09-25T04:17:08.810Z,4.50
2022-09-25T04:19:37.623Z,8.90
2022-09-25T04:22:06.380Z,5.57
2022-09-25T04:24:50.005Z,4.68
2022-09-25T04:27:24.070Z,5.28
2022-09-25T04:29:52.893Z,5.82
2022-09-25T04:32:39.394Z,4.82
2022-09-25T04:35:08.731Z,4.85
2022-09-25T04:37:37.582Z,4.65
2022-09-25T04:40:07.381Z,5.55
2022-09-25T04:42:37.574Z,6.20
2022-09-25T04:45:07.338Z,5.63
2022-09-25T04:47:36.447Z,5.55
2022-09-25T04:50:05.624Z,4.78
2022-09-25T04:52:34.358Z,4.55
2022-09-25T04:55:04.629Z,4.97
2022-09-25T04:57:57.410Z,6.38
2022-09-25T05:00:24.836Z,6.45
2022-09-25T05:02:53.951Z,4.75
2022-09-25T05:05:23.078Z,5.07
2022-09-25T05:07:55.912Z,5.90
2022-09-25T05:10:27.455Z,3.22
2022-09-25T05:12:57.485Z,5.35
2022-09-25T05:15:29.042Z,8.85
2022-09-25T05:18:02.182Z,5.38
2022-09-25T05:20:30.916Z,4.05
2022-09-25T05:23:00.223Z,5.57
2022-09-25T05:25:29.120Z,5.25
2022-09-25T05:28:00.139Z,5.38
2022-09-25T05:30:32.014Z,5.97
2022-09-25T05:33:01.294Z,5.95
2022-09-25T05:35:32.281Z,4.35
2022-09-25T05:38:01.333Z,5.57
2022-09-25T05:40:30.094Z,4.95
2022-09-25T05:42:59.015Z,4.90
2022-09-25T05:45:27.683Z,4.07
2022-09-25T05:48:05.738Z,5.03
2022-09-25T05:50:34.893Z,7.10
2022-09-25T05:53:05.904Z,3.60
2022-09-25T05:55:35.900Z,6.45
2022-09-25T05:58:05.772Z,7.47
2022-09-25T06:00:35.159Z,6.47
2022-09-25T06:03:05.504Z,5.65
2022-09-25T06:05:34.261Z,4.25
2022-09-25T06:08:03.822Z,4.45
2022-09-25T06:10:32.834Z,5.35
2022-09-25T06:13:04.989Z,4.72
2022-09-25T06:15:37.752Z,4.68
2022-09-25T06:18:09.276Z,4.13
2022-09-25T06:20:38.043Z,5.15
2022-09-25T06:23:06.717Z,5.90
2022-09-25T06:25:36.645Z,5.00
2022-09-25T06:28:06.115Z,4.80
2022-09-25T06:30:37.114Z,5.28
2022-09-25T06:33:09.893Z,6.55
2022-09-25T06:35:42.814Z,5.07
2022-09-25T06:38:12.661Z,4.00
2022-09-25T06:40:42.593Z,4.45
2022-09-25T06:43:13.517Z,5.38
2022-09-25T06:45:43.716Z,5.70
2022-09-25T06:48:15.928Z,4.35
2022-09-25T06:50:47.531Z,5.50
2022-09-25T06:53:18.229Z,6.03
2022-09-25T06:55:47.419Z,7.07
2022-09-25T06:58:18.272Z,4.32
2022-09-25T07:00:47.911Z,5.60
2022-09-25T07:03:35.945Z,5.38
2022-09-25T07:06:08.002Z,5.28
2022-09-25T07:08:36.901Z,5.30
2022-09-25T07:11:06.845Z,5.18
2022-09-25T07:13:37.520Z,6.43
2022-09-25T07:16:08.134Z,5.53
2022-09-25T07:18:39.578Z,5.68
2022-09-25T07:21:11.504Z,5.63
2022-09-25T07:23:42.169Z,6.00
2022-09-25T07:26:12.874Z,3.50
2022-09-25T07:28:42.834Z,7.47
2022-09-25T07:31:16.627Z,5.95
2022-09-25T07:33:47.530Z,5.35
2022-09-25T07:36:18.134Z,3.72
2022-09-25T07:38:50.824Z,4.53
2022-09-25T07:41:21.067Z,3.50
2022-09-25T07:44:06.347Z,3.53
2022-09-25T07:46:44.799Z,6.05
2022-09-25T07:49:15.173Z,2.88
2022-09-25T07:51:43.936Z,4.28
2022-09-25T07:54:12.968Z,3.70
2022-09-25T07:56:41.824Z,2.97
2022-09-25T07:59:10.577Z,3.00
2022-09-25T08:01:43.598Z,3.63
2022-09-25T08:04:15.850Z,2.97
2022-09-25T08:06:44.832Z,3.70
2022-09-25T08:09:13.909Z,4.93
2022-09-25T08:11:43.105Z,4.13
2022-09-25T08:14:14.511Z,3.20
2022-09-25T08:16:44.047Z,2.67
2022-09-25T08:19:14.025Z,2.28
2022-09-25T08:21:44.287Z,3.65
2022-09-25T08:24:13.259Z,3.88
2022-09-25T08:26:42.952Z,2.85
2022-09-25T08:29:12.190Z,4.07
2022-09-25T08:31:41.190Z,2.33
2022-09-25T08:34:39.051Z,2.63
2022-09-25T08:37:01.017Z,3.35
2022-09-25T08:39:30.149Z,2.90
2022-09-25T08:42:00.770Z,3.13
2022-09-25T08:44:33.405Z,3.72
2022-09-25T08:47:24.167Z,2.87
2022-09-25T08:50:04.362Z,2.67
2022-09-25T08:52:36.272Z,2.42
2022-09-25T08:55:05.569Z,4.25
2022-09-25T08:57:40.455Z,2.05
2022-09-25T09:00:21.241Z,3.08
2022-09-25T09:02:55.215Z,3.20
2022-09-25T09:05:29.393Z,4.07
2022-09-25T09:08:03.653Z,2.95
2022-09-25T09:10:39.383Z,2.22
2022-09-25T09:13:18.937Z,2.33
2022-09-25T09:15:52.916Z,2.53
2022-09-25T09:18:25.058Z,1.98
2022-09-25T09:20:55.449Z,2.72
2022-09-25T09:23:30.926Z,2.35
2022-09-25T09:26:04.858Z,1.90
2022-09-25T09:29:03.985Z,3.17
2022-09-25T09:31:42.925Z,2.30
2022-09-25T09:35:01.095Z,2.28
2022-09-25T09:40:21.935Z,2.15
2022-09-25T09:42:59.882Z,3.15
2022-09-25T09:45:36.965Z,2.00
2022-09-25T09:48:29.829Z,2.95
2022-09-25T09:51:04.253Z,2.95
2022-09-25T09:53:39.911Z,2.08
2022-09-25T09:56:15.943Z,2.33
2022-09-25T09:58:50.370Z,2.10
2022-09-25T10:01:40.114Z,2.05
2022-09-25T10:04:12.673Z,2.47
2022-09-25T10:06:47.932Z,1.73
2022-09-25T10:09:18.294Z,1.85
2022-09-25T10:11:56.908Z,2.20
2022-09-25T10:14:34.463Z,2.25
2022-09-25T10:17:05.787Z,1.98
2022-09-25T10:19:46.720Z,2.22
2022-09-25T10:22:22.631Z,3.20
2022-09-25T10:24:56.887Z,4.82
2022-09-25T10:27:33.028Z,2.70
2022-09-25T10:30:21.572Z,2.60
2022-09-25T10:33:43.167Z,4.18
2022-09-25T10:36:15.569Z,2.70
2022-09-25T10:38:53.393Z,2.73
2022-09-25T10:41:27.730Z,3.42
2022-09-25T10:44:01.665Z,3.22
2022-09-25T10:46:53.605Z,2.83
2022-09-25T10:49:45.627Z,2.10
2022-09-25T10:52:17.328Z,2.83
2022-09-25T10:54:48.317Z,1.60
2022-09-25T10:57:34.820Z,2.17
2022-09-25T11:00:20.558Z,2.13
2022-09-25T11:02:54.255Z,1.55
2022-09-25T11:05:30.062Z,2.30
2022-09-25T11:08:02.520Z,4.30
2022-09-25T11:10:41.064Z,2.30
2022-09-25T11:13:22.167Z,1.50
2022-09-25T11:15:55.029Z,1.85
2022-09-25T11:18:39.250Z,2.65
2022-09-25T11:21:19.508Z,2.20
2022-09-25T11:24:01.714Z,1.83
2022-09-25T11:26:34.881Z,1.00
2022-09-25T11:29:16.130Z,2.17
2022-09-25T11:31:52.700Z,2.40
2022-09-25T11:34:37.627Z,2.20
2022-09-25T11:37:15.690Z,2.03
2022-09-25T11:40:05.975Z,2.10
2022-09-25T11:42:41.260Z,1.17
2022-09-25T11:45:21.870Z,2.10
2022-09-25T11:48:01.373Z,1.55
2022-09-25T11:50:43.269Z,2.30
2022-09-25T11:53:24.856Z,1.83
2022-09-25T11:56:15.374Z,2.42
2022-09-25T11:59:00.740Z,2.17
2022-09-25T12:01:36.126Z,2.38
2022-09-25T12:04:24.260Z,2.47
2022-09-25T12:07:10.049Z,2.08
2022-09-25T12:10:08.441Z,1.13
2022-09-25T12:12:45.213Z,2.03
2022-09-25T12:15:22.033Z,1.77
2022-09-25T12:18:01.986Z,2.50
2022-09-25T12:20:37.703Z,1.85
2022-09-25T12:23:17.091Z,3.10
2022-09-25T12:25:57.036Z,1.35
2022-09-25T12:28:40.967Z,2.00
2022-09-25T12:31:51.598Z,2.10
2022-09-25T12:34:35.992Z,2.50
2022-09-25T12:37:15.421Z,1.35
2022-09-25T12:39:51.591Z,1.30
2022-09-25T12:42:25.857Z,1.52
2022-09-25T12:45:04.081Z,1.83
2022-09-25T12:47:40.626Z,2.53
2022-09-25T12:50:14.697Z,1.70
2022-09-25T12:52:51.820Z,2.03
2022-09-25T12:55:26.289Z,2.13
2022-09-25T12:58:07.077Z,1.55
2022-09-25T13:01:07.332Z,2.05
2022-09-25T13:03:49.573Z,2.80
2022-09-25T13:06:26.456Z,2.97
2022-09-25T13:09:03.695Z,1.58
2022-09-25T13:11:45.832Z,2.58
2022-09-25T13:14:24.967Z,1.98
2022-09-25T13:16:54.285Z,2.95
2022-09-25T13:19:28.908Z,1.80
2022-09-25T13:22:04.863Z,5.03
2022-09-25T13:24:44.968Z,1.70
2022-09-25T13:27:19.940Z,1.65
2022-09-25T13:29:55.684Z,1.40
2022-09-25T13:32:29.133Z,1.75
2022-09-25T13:35:02.709Z,1.58
2022-09-25T13:37:35.435Z,1.88
2022-09-25T13:40:35.732Z,3.08
2022-09-25T13:43:21.692Z,2.15
2022-09-25T13:46:14.016Z,3.22
2022-09-25T13:48:43.674Z,1.90
2022-09-25T13:51:37.702Z,2.42
2022-09-25T13:54:31.650Z,3.78
2022-09-25T13:57:08.226Z,1.83
2022-09-25T13:59:39.788Z,2.85
2022-09-25T14:02:37.165Z,2.03
2022-09-25T14:05:10.498Z,2.03
2022-09-25T14:07:45.924Z,1.80
2022-09-25T14:10:19.330Z,2.13
2022-09-25T14:13:06.738Z,2.22
2022-09-25T14:15:41.189Z,4.32
2022-09-25T14:18:18.931Z,2.53
2022-09-25T14:21:21.774Z,2.88
2022-09-25T14:23:53.558Z,3.05
2022-09-25T14:26:25.586Z,1.95
2022-09-25T14:28:58.186Z,2.00
2022-09-25T14:31:44.127Z,2.47
2022-09-25T14:34:37.892Z,1.85
2022-09-25T14:37:31.005Z,2.58
2022-09-25T14:40:06.288Z,2.05
2022-09-25T14:42:56.806Z,1.95
2022-09-25T14:45:46.156Z,3.22
2022-09-25T14:48:18.600Z,2.25
2022-09-25T14:51:08.792Z,3.85
2022-09-25T14:53:42.205Z,3.10
2022-09-25T14:58:46.726Z,2.17
2022-09-25T15:01:26.139Z,3.33
2022-09-25T15:03:59.098Z,4.53
2022-09-25T15:06:30.203Z,3.90
2022-09-25T15:09:01.879Z,3.05
2022-09-25T15:11:42.183Z,3.67
2022-09-25T15:14:12.969Z,3.05
2022-09-25T15:17:07.801Z,3.25
2022-09-25T15:19:40.770Z,3.15
2022-09-25T15:22:16.747Z,2.92
2022-09-25T15:24:58.410Z,3.13
2022-09-25T15:30:57.825Z,3.95
2022-09-25T15:33:30.657Z,3.20
2022-09-25T15:36:02.219Z,3.42
2022-09-25T15:38:32.716Z,4.13
2022-09-25T15:41:02.326Z,4.05
2022-09-25T15:43:31.677Z,3.58
2022-09-25T15:46:32.239Z,5.80
2022-09-25T15:49:03.535Z,3.22
2022-09-25T15:51:34.679Z,4.57
2022-09-25T15:54:06.676Z,3.95
2022-09-25T15:56:49.128Z,3.67
2022-09-25T15:59:22.359Z,4.10
2022-09-25T16:02:09.859Z,5.82
2022-09-25T16:04:47.363Z,4.32
2022-09-25T16:07:28.574Z,3.72
2022-09-25T16:09:59.956Z,5.70
2022-09-25T16:12:33.385Z,6.35
2022-09-25T16:15:53.139Z,3.53
2022-09-25T16:18:39.671Z,5.55
2022-09-25T16:21:18.802Z,7.10
2022-09-25T16:23:57.440Z,4.45
2022-09-25T16:26:38.393Z,5.10
2022-09-25T16:29:18.667Z,5.30
2022-09-25T16:31:48.219Z,5.75
2022-09-25T16:34:27.939Z,7.15
2022-09-25T16:37:03.132Z,6.63
2022-09-25T16:39:37.009Z,6.45
2022-09-25T16:42:35.812Z,5.53
2022-09-25T16:45:17.853Z,6.28
2022-09-25T16:48:53.170Z,5.05
2022-09-25T16:51:27.005Z,6.10
2022-09-25T16:56:29.909Z,6.68
2022-09-25T16:58:59.943Z,6.03
2022-09-25T17:01:30.045Z,6.13
2022-09-25T17:04:00.389Z,6.80
2022-09-25T17:06:31.545Z,7.20
2022-09-25T17:09:01.951Z,7.00
2022-09-25T17:11:31.413Z,7.03
2022-09-25T17:14:01.024Z,6.90
2022-09-25T17:16:30.147Z,9.57
2022-09-25T17:19:01.667Z,13.45
2022-09-25T17:21:30.768Z,15.80
2022-09-25T17:24:01.731Z,8.85
2022-09-25T17:26:30.947Z,8.77
2022-09-25T17:29:00.376Z,8.13
2022-09-25T17:31:29.743Z,8.27
2022-09-25T17:33:59.053Z,58.22
2022-09-25T17:36:28.337Z,23.45
2022-09-25T17:38:57.719Z,17.63
2022-09-25T17:41:32.348Z,9.43
2022-09-25T17:44:03.636Z,10.18
2022-09-25T17:46:36.472Z,8.82
2022-09-25T17:49:06.206Z,10.30
2022-09-25T17:51:35.892Z,10.63
2022-09-25T17:54:06.957Z,10.45
2022-09-25T17:56:39.402Z,9.95
2022-09-25T17:59:09.970Z,11.38
2022-09-25T18:01:40.386Z,12.35
2022-09-25T18:04:20.536Z,9.80
2022-09-25T18:06:50.676Z,10.05
2022-09-25T18:09:20.683Z,10.30
2022-09-25T18:11:52.015Z,23.20
2022-09-25T18:14:21.226Z,22.38
2022-09-25T18:16:50.354Z,20.75
2022-09-25T18:19:38.806Z,17.83
2022-09-25T18:22:21.978Z,16.90
2022-09-25T18:24:57.049Z,19.58
2022-09-25T18:27:30.665Z,14.48
2022-09-25T18:29:59.920Z,15.35
2022-09-25T18:32:29.854Z,13.40
2022-09-25T18:34:59.926Z,27.75
2022-09-25T18:37:29.622Z,18.10
2022-09-25T18:39:59.332Z,23.23
2022-09-25T18:42:29.885Z,15.80
2022-09-25T18:45:01.567Z,14.43
2022-09-25T18:47:30.802Z,15.30
2022-09-25T18:50:00.199Z,17.23
2022-09-25T18:52:30.043Z,14.57
2022-09-25T18:55:00.593Z,13.93
2022-09-25T18:57:31.046Z,12.15
2022-09-25T19:00:01.578Z,13.85
2022-09-25T19:02:33.169Z,13.77
2022-09-25T19:05:02.706Z,12.30
2022-09-25T19:07:32.177Z,12.52
2022-09-25T19:10:07.862Z,12.73
2022-09-25T19:12:38.420Z,21.52
2022-09-25T19:15:08.332Z,14.02
2022-09-25T19:17:37.891Z,11.90
2022-09-25T19:20:07.851Z,13.20
2022-09-25T19:22:37.893Z,11.32
2022-09-25T19:25:08.208Z,14.52
2022-09-25T19:27:38.833Z,11.75
2022-09-25T19:30:09.151Z,11.88
2022-09-25T19:32:39.293Z,11.70
2022-09-25T19:35:11.311Z,11.63
2022-09-25T19:37:42.171Z,12.55
2022-09-25T19:40:29.708Z,16.35
2022-09-25T19:43:01.343Z,11.45
2022-09-25T19:45:30.820Z,11.25
2022-09-25T19:48:00.353Z,12.43
2022-09-25T19:50:29.809Z,14.98
2022-09-25T19:52:59.955Z,10.95
2022-09-25T19:55:29.076Z,11.65
2022-09-25T19:57:59.542Z,12.82
2022-09-25T20:00:28.706Z,12.98
2022-09-25T20:02:57.848Z,16.05
2022-09-25T20:05:26.974Z,17.75
2022-09-25T20:07:55.836Z,16.35
2022-09-25T20:10:25.044Z,13.82
2022-09-25T20:12:54.249Z,13.38
2022-09-25T20:15:24.653Z,14.75
2022-09-25T20:17:56.361Z,15.30
2022-09-25T20:20:30.317Z,15.52
2022-09-25T20:23:00.147Z,15.93
2022-09-25T20:25:29.214Z,18.15
2022-09-25T20:27:59.858Z,16.80
2022-09-25T20:30:35.011Z,15.38
2022-09-25T20:33:04.934Z,17.30
2022-09-25T20:35:35.097Z,16.40
2022-09-25T20:38:11.132Z,18.95
2022-09-25T20:40:40.527Z,17.65
2022-09-25T20:43:09.628Z,16.98
2022-09-25T20:45:39.934Z,14.13
2022-09-25T20:48:08.980Z,13.90
2022-09-25T20:50:38.287Z,17.17
2022-09-25T20:53:07.354Z,16.70
2022-09-25T20:55:38.059Z,17.25
2022-09-25T20:58:06.941Z,15.55
2022-09-25T21:00:36.238Z,16.05
2022-09-25T21:03:06.699Z,15.55
2022-09-25T21:05:39.647Z,14.65
2022-09-25T21:08:09.044Z,14.43
2022-09-25T21:10:40.426Z,19.83
2022-09-25T21:13:09.305Z,15.15
2022-09-25T21:15:38.498Z,15.95
2022-09-25T21:18:08.866Z,13.98
2022-09-25T21:20:38.231Z,14.50
2022-09-25T21:23:07.436Z,18.30
2022-09-25T21:25:36.625Z,13.88
2022-09-25T21:28:05.905Z,12.88
2022-09-25T21:30:35.219Z,15.07
2022-09-25T21:33:04.784Z,15.52
2022-09-25T21:35:35.210Z,13.95
2022-09-25T21:38:04.454Z,13.45
2022-09-25T21:40:33.955Z,13.52
2022-09-25T21:43:03.045Z,15.40
2022-09-25T21:45:32.676Z,15.05
2022-09-25T21:48:02.134Z,14.27
2022-09-25T21:50:31.327Z,13.88
2022-09-25T21:53:02.310Z,15.52
2022-09-25T21:55:31.876Z,14.20
2022-09-25T21:58:00.765Z,16.05
2022-09-25T22:00:29.771Z,16.55
2022-09-25T22:02:58.827Z,12.15
2022-09-25T22:05:27.955Z,18.70
2022-09-25T22:07:56.952Z,16.38
2022-09-25T22:10:27.907Z,16.75
2022-09-25T22:12:57.864Z,16.23
2022-09-25T22:15:27.102Z,18.48
2022-09-25T22:17:55.945Z,17.58
2022-09-25T22:20:24.947Z,17.92
2022-09-25T22:22:53.902Z,19.40
2022-09-25T22:25:24.500Z,18.35
2022-09-25T22:27:55.018Z,18.23
2022-09-25T22:30:24.374Z,15.80
2022-09-25T22:32:53.461Z,19.40
2022-09-25T22:35:22.354Z,17.63
2022-09-25T22:37:51.507Z,15.93
2022-09-25T22:40:20.446Z,19.10
2022-09-25T22:42:49.609Z,17.98
2022-09-25T22:45:19.924Z,18.40
2022-09-25T22:47:48.946Z,17.13
2022-09-25T22:50:18.409Z,20.75
2022-09-25T22:52:47.197Z,18.02
2022-09-25T22:55:16.214Z,17.13
2022-09-25T22:57:45.804Z,15.32
2022-09-25T23:00:15.196Z,13.95
2022-09-25T23:02:45.336Z,15.90
2022-09-25T23:05:14.762Z,17.88
2022-09-25T23:07:43.922Z,17.98
2022-09-25T23:10:13.083Z,18.35
2022-09-25T23:12:42.232Z,18.75
2022-09-25T23:15:12.081Z,19.08
2022-09-25T23:17:41.120Z,19.33
2022-09-25T23:20:11.793Z,19.27
2022-09-25T23:22:40.593Z,20.80
2022-09-25T23:25:10.377Z,19.65
2022-09-25T23:27:39.260Z,19.05
2022-09-25T23:30:09.376Z,17.88
2022-09-25T23:32:38.436Z,17.00
2022-09-25T23:35:07.959Z,19.25
2022-09-25T23:37:38.471Z,16.98
2022-09-25T23:40:12.332Z,18.38
2022-09-25T23:42:44.402Z,17.52
2022-09-25T23:45:13.448Z,16.83
2022-09-25T23:47:42.659Z,17.30
2022-09-25T23:50:11.842Z,17.30
2022-09-25T23:52:42.068Z,16.45
2022-09-25T23:55:11.362Z,16.73
2022-09-25T23:57:40.553Z,14.85
